sensor_id;sensor_type;location;lat;lon;timestamp;pressure;altitude;pressure_sealevel;temperature;humidity
63946;BME280;50122;56.330;43.838;2022-09-09T00:02:01;101095.75;;;6.38;84.90
63946;BME280;50122;56.330;43.838;2022-09-09T00:04:31;101110.72;;;6.35;85.02
63946;BME280;50122;56.330;43.838;2022-09-09T00:15:25;101117.88;;;6.22;86.09
63946;BME280;50122;56.330;43.838;2022-09-09T00:17:59;101115.22;;;6.23;86.02
63946;BME280;50122;56.330;43.838;2022-09-09T00:20:52;101122.25;;;6.21;86.29
63946;BME280;50122;56.330;43.838;2022-09-09T00:23:38;101129.25;;;6.21;86.24
63946;BME280;50122;56.330;43.838;2022-09-09T00:29:05;101129.25;;;6.21;86.60
63946;BME280;50122;56.330;43.838;2022-09-09T00:31:36;101124.94;;;6.18;86.29
63946;BME280;50122;56.330;43.838;2022-09-09T00:36:40;101125.84;;;6.14;86.53
63946;BME280;50122;56.330;43.838;2022-09-09T00:39:27;101133.66;;;6.19;86.67
63946;BME280;50122;56.330;43.838;2022-09-09T00:42:14;101147.59;;;6.22;86.75
63946;BME280;50122;56.330;43.838;2022-09-09T00:45:01;101132.81;;;6.18;86.33
63946;BME280;50122;56.330;43.838;2022-09-09T00:53:05;101135.31;;;6.26;86.84
63946;BME280;50122;56.330;43.838;2022-09-09T00:56:06;101143.13;;;6.32;86.47
63946;BME280;50122;56.330;43.838;2022-09-09T00:58:35;101127.47;;;6.24;86.89
63946;BME280;50122;56.330;43.838;2022-09-09T01:01:11;101151.81;;;6.37;86.81
63946;BME280;50122;56.330;43.838;2022-09-09T01:03:48;101149.22;;;6.36;86.62
63946;BME280;50122;56.330;43.838;2022-09-09T01:06:30;101153.53;;;6.40;86.21
63946;BME280;50122;56.330;43.838;2022-09-09T01:09:17;101160.47;;;6.42;86.49
63946;BME280;50122;56.330;43.838;2022-09-09T01:12:03;101155.22;;;6.44;86.17
63946;BME280;50122;56.330;43.838;2022-09-09T01:17:23;101164.88;;;6.42;85.82
63946;BME280;50122;56.330;43.838;2022-09-09T01:26:08;101171.97;;;6.34;85.70
63946;BME280;50122;56.330;43.838;2022-09-09T01:28:39;101169.44;;;6.28;85.65
63946;BME280;50122;56.330;43.838;2022-09-09T01:31:09;101170.34;;;6.23;85.22
63946;BME280;50122;56.330;43.838;2022-09-09T01:33:37;101170.38;;;6.22;85.36
63946;BME280;50122;56.330;43.838;2022-09-09T01:36:26;101171.28;;;6.18;85.70
63946;BME280;50122;56.330;43.838;2022-09-09T01:38:57;101176.56;;;6.15;86.29
63946;BME280;50122;56.330;43.838;2022-09-09T01:41:24;101178.38;;;6.11;85.72
63946;BME280;50122;56.330;43.838;2022-09-09T01:43:52;101182.72;;;6.12;86.11
63946;BME280;50122;56.330;43.838;2022-09-09T01:46:22;101185.34;;;6.12;86.09
63946;BME280;50122;56.330;43.838;2022-09-09T01:48:51;101174.03;;;6.07;86.31
63946;BME280;50122;56.330;43.838;2022-09-09T01:51:19;101191.50;;;6.11;86.53
63946;BME280;50122;56.330;43.838;2022-09-09T01:53:46;101184.53;;;6.08;86.14
63946;BME280;50122;56.330;43.838;2022-09-09T01:59:03;101191.53;;;6.05;86.31
63946;BME280;50122;56.330;43.838;2022-09-09T02:04:41;101178.66;;;5.80;86.21
63946;BME280;50122;56.330;43.838;2022-09-09T02:10:08;101197.91;;;5.79;85.34
63946;BME280;50122;56.330;43.838;2022-09-09T02:12:41;101190.97;;;5.70;85.79
63946;BME280;50122;56.330;43.838;2022-09-09T02:15:21;101206.72;;;5.70;85.92
63946;BME280;50122;56.330;43.838;2022-09-09T02:17:51;101208.56;;;5.62;85.73
63946;BME280;50122;56.330;43.838;2022-09-09T02:20:19;101205.13;;;5.52;85.68
63946;BME280;50122;56.330;43.838;2022-09-09T02:22:49;101210.47;;;5.43;85.56
63946;BME280;50122;56.330;43.838;2022-09-09T02:25:22;101216.63;;;5.37;86.06
63946;BME280;50122;56.330;43.838;2022-09-09T02:27:50;101218.44;;;5.25;86.22
63946;BME280;50122;56.330;43.838;2022-09-09T02:30:20;101223.72;;;5.17;86.12
63946;BME280;50122;56.330;43.838;2022-09-09T02:32:50;101210.75;;;5.01;86.52
63946;BME280;50122;56.330;43.838;2022-09-09T02:35:23;101222.94;;;5.04;86.79
63946;BME280;50122;56.330;43.838;2022-09-09T02:37:53;101232.56;;;5.02;87.32
63946;BME280;50122;56.330;43.838;2022-09-09T02:40:21;101238.69;;;4.99;87.39
63946;BME280;50122;56.330;43.838;2022-09-09T02:42:49;101229.16;;;4.87;87.42
63946;BME280;50122;56.330;43.838;2022-09-09T02:45:22;101226.56;;;4.80;87.45
63946;BME280;50122;56.330;43.838;2022-09-09T02:48:17;101245.78;;;4.76;87.69
63946;BME280;50122;56.330;43.838;2022-09-09T02:50:58;101231.88;;;4.64;87.67
63946;BME280;50122;56.330;43.838;2022-09-09T02:53:37;101254.56;;;4.64;88.08
63946;BME280;50122;56.330;43.838;2022-09-09T02:56:15;101243.28;;;4.48;87.80
63946;BME280;50122;56.330;43.838;2022-09-09T02:58:43;101252.84;;;4.50;88.28
63946;BME280;50122;56.330;43.838;2022-09-09T03:01:11;101263.34;;;4.49;88.37
63946;BME280;50122;56.330;43.838;2022-09-09T03:03:38;101247.69;;;4.29;88.53
63946;BME280;50122;56.330;43.838;2022-09-09T03:06:06;101258.16;;;4.38;88.82
63946;BME280;50122;56.330;43.838;2022-09-09T03:08:33;101266.00;;;4.40;89.21
63946;BME280;50122;56.330;43.838;2022-09-09T03:11:00;101248.56;;;4.29;88.75
63946;BME280;50122;56.330;43.838;2022-09-09T03:13:29;101275.59;;;4.39;89.48
63946;BME280;50122;56.330;43.838;2022-09-09T03:15:56;101254.66;;;4.28;89.64
63946;BME280;50122;56.330;43.838;2022-09-09T03:18:22;101279.94;;;4.35;89.45
63946;BME280;50122;56.330;43.838;2022-09-09T03:20:49;101272.13;;;4.32;90.03
63946;BME280;50122;56.330;43.838;2022-09-09T03:23:17;101284.31;;;4.41;89.64
63946;BME280;50122;56.330;43.838;2022-09-09T03:25:50;101279.94;;;4.35;89.93
63946;BME280;50122;56.330;43.838;2022-09-09T03:28:18;101275.56;;;4.38;90.34
63946;BME280;50122;56.330;43.838;2022-09-09T03:30:45;101294.75;;;4.49;90.17
63946;BME280;50122;56.330;43.838;2022-09-09T03:33:11;101292.13;;;4.46;90.03
63946;BME280;50122;56.330;43.838;2022-09-09T03:35:39;101289.53;;;4.41;89.95
63946;BME280;50122;56.330;43.838;2022-09-09T03:38:06;101296.53;;;4.42;90.00
63946;BME280;50122;56.330;43.838;2022-09-09T03:40:32;101306.09;;;4.51;90.10
63946;BME280;50122;56.330;43.838;2022-09-09T03:42:59;101292.13;;;4.46;90.12
63946;BME280;50122;56.330;43.838;2022-09-09T03:45:25;101306.09;;;4.54;90.12
63946;BME280;50122;56.330;43.838;2022-09-09T16:39:58;101638.13;;;7.90;65.57
63946;BME280;50122;56.330;43.838;2022-09-09T16:42:26;101640.66;;;7.99;66.05
63946;BME280;50122;56.330;43.838;2022-09-09T16:44:53;101642.38;;;8.05;66.75
63946;BME280;50122;56.330;43.838;2022-09-09T16:47:20;101637.09;;;8.05;67.33
63946;BME280;50122;56.330;43.838;2022-09-09T16:49:47;101648.34;;;8.16;68.03
63946;BME280;50122;56.330;43.838;2022-09-09T16:52:15;101648.25;;;8.25;67.82
63946;BME280;50122;56.330;43.838;2022-09-09T16:54:45;101638.53;;;8.32;67.66
63946;BME280;50122;56.330;43.838;2022-09-09T16:57:12;101645.44;;;8.41;66.97
63946;BME280;50122;56.330;43.838;2022-09-09T16:59:39;101649.03;;;8.33;66.62
63946;BME280;50122;56.330;43.838;2022-09-09T17:02:07;101660.53;;;8.26;66.50
63946;BME280;50122;56.330;43.838;2022-09-09T17:04:34;101641.47;;;8.04;67.16
63946;BME280;50122;56.330;43.838;2022-09-09T17:07:01;101653.75;;;8.05;67.63
63946;BME280;50122;56.330;43.838;2022-09-09T17:09:28;101651.22;;;7.94;67.76
63946;BME280;50122;56.330;43.838;2022-09-09T17:11:55;101661.81;;;7.88;68.01
63946;BME280;50122;56.330;43.838;2022-09-09T17:14:22;101660.16;;;7.79;68.36
63946;BME280;50122;56.330;43.838;2022-09-09T17:16:50;101666.31;;;7.80;68.52
63946;BME280;50122;56.330;43.838;2022-09-09T17:19:16;101660.25;;;7.72;68.66
63946;BME280;50122;56.330;43.838;2022-09-09T17:21:43;101662.91;;;7.70;69.08
63946;BME280;50122;56.330;43.838;2022-09-09T17:24:33;101670.84;;;7.62;69.37
63946;BME280;50122;56.330;43.838;2022-09-09T17:27:00;101650.91;;;7.41;69.99
63946;BME280;50122;56.330;43.838;2022-09-09T17:29:28;101660.50;;;7.42;70.19
63946;BME280;50122;56.330;43.838;2022-09-09T17:31:55;101671.94;;;7.41;70.00
63946;BME280;50122;56.330;43.838;2022-09-09T17:34:22;101662.31;;;7.37;70.51
63946;BME280;50122;56.330;43.838;2022-09-09T17:36:50;101675.41;;;7.45;70.93
63946;BME280;50122;56.330;43.838;2022-09-09T17:39:17;101667.47;;;7.51;70.94
63946;BME280;50122;56.330;43.838;2022-09-09T17:41:43;101675.22;;;7.65;71.10
63946;BME280;50122;56.330;43.838;2022-09-09T17:44:10;101666.41;;;7.71;71.45
63946;BME280;50122;56.330;43.838;2022-09-09T17:46:39;101667.28;;;7.68;70.92
63946;BME280;50122;56.330;43.838;2022-09-09T17:49:19;101675.09;;;7.79;71.25
63946;BME280;50122;56.330;43.838;2022-09-09T17:51:46;101641.84;;;7.72;71.39
63946;BME280;50122;56.330;43.838;2022-09-09T17:54:18;101669.78;;;7.83;71.04
63946;BME280;50122;56.330;43.838;2022-09-09T17:56:46;101672.44;;;7.82;70.45
63946;BME280;50122;56.330;43.838;2022-09-09T17:59:14;101676.88;;;7.74;70.73
63946;BME280;50122;56.330;43.838;2022-09-09T18:01:43;101674.38;;;7.63;70.92
63946;BME280;50122;56.330;43.838;2022-09-09T18:04:12;101671.78;;;7.58;71.16
63946;BME280;50122;56.330;43.838;2022-09-09T18:06:44;101663.09;;;7.48;71.10
63946;BME280;50122;56.330;43.838;2022-09-09T18:09:21;101670.22;;;7.37;71.44
63946;BME280;50122;56.330;43.838;2022-09-09T18:11:50;101670.28;;;7.25;71.91
63946;BME280;50122;56.330;43.838;2022-09-09T18:14:24;101672.16;;;7.15;72.60
63946;BME280;50122;56.330;43.838;2022-09-09T18:16:52;101665.22;;;7.00;72.55
63946;BME280;50122;56.330;43.838;2022-09-09T18:19:21;101657.44;;;6.89;73.10
63946;BME280;50122;56.330;43.838;2022-09-09T18:21:49;101668.84;;;6.84;74.00
63946;BME280;50122;56.330;43.838;2022-09-09T18:24:17;101680.25;;;6.80;73.73
63946;BME280;50122;56.330;43.838;2022-09-09T18:26:44;101675.03;;;6.75;74.52
63946;BME280;50122;56.330;43.838;2022-09-09T18:29:14;101671.53;;;6.70;74.65
63946;BME280;50122;56.330;43.838;2022-09-09T18:31:41;101677.69;;;6.72;75.08
63946;BME280;50122;56.330;43.838;2022-09-09T18:34:10;101670.66;;;6.74;75.82
63946;BME280;50122;56.330;43.838;2022-09-09T18:36:47;101673.22;;;6.86;76.21
63946;BME280;50122;56.330;43.838;2022-09-09T18:39:17;101683.66;;;6.97;76.11
63946;BME280;50122;56.330;43.838;2022-09-09T18:41:48;101674.00;;;6.98;76.21
63946;BME280;50122;56.330;43.838;2022-09-09T18:44:19;101668.75;;;6.94;75.96
63946;BME280;50122;56.330;43.838;2022-09-09T18:46:48;101679.28;;;6.99;76.09
63946;BME280;50122;56.330;43.838;2022-09-09T18:49:15;101665.28;;;6.91;76.12
63946;BME280;50122;56.330;43.838;2022-09-09T18:51:43;101670.53;;;6.94;76.15
63946;BME280;50122;56.330;43.838;2022-09-09T18:54:13;101681.91;;;6.94;76.21
63946;BME280;50122;56.330;43.838;2022-09-09T18:56:39;101676.69;;;6.88;76.06
63946;BME280;50122;56.330;43.838;2022-09-09T18:59:15;101688.06;;;6.93;76.28
63946;BME280;50122;56.330;43.838;2022-09-09T19:01:46;101676.69;;;6.90;75.75
63946;BME280;50122;56.330;43.838;2022-09-09T19:04:13;101680.19;;;6.89;76.06
63946;BME280;50122;56.330;43.838;2022-09-09T19:06:43;101687.16;;;6.96;76.14
63946;BME280;50122;56.330;43.838;2022-09-09T19:09:16;101678.44;;;6.91;76.27
63946;BME280;50122;56.330;43.838;2022-09-09T19:11:46;101677.56;;;6.89;76.03
63946;BME280;50122;56.330;43.838;2022-09-09T19:14:14;101684.59;;;6.87;76.04
63946;BME280;50122;56.330;43.838;2022-09-09T19:16:43;101675.84;;;6.85;76.38
63946;BME280;50122;56.330;43.838;2022-09-09T19:19:14;101666.25;;;6.81;76.89
63946;BME280;50122;56.330;43.838;2022-09-09T19:21:44;101677.66;;;6.75;76.62
63946;BME280;50122;56.330;43.838;2022-09-09T19:24:14;101678.56;;;6.69;76.78
63946;BME280;50122;56.330;43.838;2022-09-09T19:26:46;101688.22;;;6.64;76.68
63946;BME280;50122;56.330;43.838;2022-09-09T19:29:22;101681.25;;;6.57;77.40
63946;BME280;50122;56.330;43.838;2022-09-09T19:32:12;101648.94;;;6.36;78.28
63946;BME280;50122;56.330;43.838;2022-09-09T19:35:00;101689.09;;;6.60;78.21
63946;BME280;50122;56.330;43.838;2022-09-09T19:37:27;101697.88;;;6.60;78.16
63946;BME280;50122;56.330;43.838;2022-09-09T19:39:54;101682.13;;;6.56;78.08
63946;BME280;50122;56.330;43.838;2022-09-09T19:42:22;101671.63;;;6.50;78.63
63946;BME280;50122;56.330;43.838;2022-09-09T19:44:48;101692.63;;;6.60;78.44
63946;BME280;50122;56.330;43.838;2022-09-09T19:47:17;101698.69;;;6.67;78.13
63946;BME280;50122;56.330;43.838;2022-09-09T19:49:44;101693.44;;;6.67;78.16
63946;BME280;50122;56.330;43.838;2022-09-09T19:52:13;101695.19;;;6.68;78.11
63946;BME280;50122;56.330;43.838;2022-09-09T19:54:39;101678.63;;;6.55;78.48
63946;BME280;50122;56.330;43.838;2022-09-09T19:57:06;101693.47;;;6.69;78.27
63946;BME280;50122;56.330;43.838;2022-09-09T19:59:33;101696.94;;;6.69;78.55
63946;BME280;50122;56.330;43.838;2022-09-09T20:02:01;101688.19;;;6.67;78.26
63946;BME280;50122;56.330;43.838;2022-09-09T20:04:28;101690.78;;;6.75;78.31
63946;BME280;50122;56.330;43.838;2022-09-09T20:06:54;101694.28;;;6.77;78.18
63946;BME280;50122;56.330;43.838;2022-09-09T20:09:22;101650.63;;;6.51;77.99
63946;BME280;50122;56.330;43.838;2022-09-09T20:11:52;101696.88;;;6.82;78.48
63946;BME280;50122;56.330;43.838;2022-09-09T20:14:18;101697.78;;;6.81;78.21
63946;BME280;50122;56.330;43.838;2022-09-09T20:16:46;101703.88;;;6.83;78.25
63946;BME280;50122;56.330;43.838;2022-09-09T20:19:14;101691.66;;;6.74;77.90
63946;BME280;50122;56.330;43.838;2022-09-09T20:21:45;101694.28;;;6.77;77.93
63946;BME280;50122;56.330;43.838;2022-09-09T20:24:19;101701.28;;;6.78;77.86
63946;BME280;50122;56.330;43.838;2022-09-09T20:26:48;101705.66;;;6.81;78.11
63946;BME280;50122;56.330;43.838;2022-09-09T20:29:18;101706.53;;;6.78;77.66
63946;BME280;50122;56.330;43.838;2022-09-09T20:31:45;101689.03;;;6.74;77.97
63946;BME280;50122;56.330;43.838;2022-09-09T20:34:14;101709.19;;;6.75;78.33
63946;BME280;50122;56.330;43.838;2022-09-09T20:36:42;101703.06;;;6.73;78.22
63946;BME280;50122;56.330;43.838;2022-09-09T20:39:11;101705.69;;;6.70;78.36
63946;BME280;50122;56.330;43.838;2022-09-09T20:41:38;101708.34;;;6.68;78.37
63946;BME280;50122;56.330;43.838;2022-09-09T20:44:09;101711.81;;;6.67;78.54
63946;BME280;50122;56.330;43.838;2022-09-09T20:46:40;101693.47;;;6.61;78.94
63946;BME280;50122;56.330;43.838;2022-09-09T20:49:09;101707.47;;;6.69;78.79
63946;BME280;50122;56.330;43.838;2022-09-09T20:51:37;101703.97;;;6.69;79.09
63946;BME280;50122;56.330;43.838;2022-09-09T20:54:05;101710.06;;;6.72;79.03
63946;BME280;50122;56.330;43.838;2022-09-09T20:56:34;101712.69;;;6.72;79.29
63946;BME280;50122;56.330;43.838;2022-09-09T20:59:04;101705.72;;;6.68;79.05
63946;BME280;50122;56.330;43.838;2022-09-09T21:01:31;101714.47;;;6.70;78.77
63946;BME280;50122;56.330;43.838;2022-09-09T21:03:58;101721.47;;;6.70;78.79
63946;BME280;50122;56.330;43.838;2022-09-09T21:06:25;101718.84;;;6.68;78.93
63946;BME280;50122;56.330;43.838;2022-09-09T21:08:53;101716.22;;;6.67;78.98
63946;BME280;50122;56.330;43.838;2022-09-09T21:11:19;101725.88;;;6.68;78.91
63946;BME280;50122;56.330;43.838;2022-09-09T21:13:46;101718.03;;;6.62;79.05
63946;BME280;50122;56.330;43.838;2022-09-09T21:16:15;101717.13;;;6.58;78.80
63946;BME280;50122;56.330;43.838;2022-09-09T21:18:45;101696.16;;;6.50;79.56
63946;BME280;50122;56.330;43.838;2022-09-09T21:21:12;101722.34;;;6.67;79.42
63946;BME280;50122;56.330;43.838;2022-09-09T21:23:38;101716.19;;;6.71;78.80
63946;BME280;50122;56.330;43.838;2022-09-09T21:26:05;101714.47;;;6.67;78.86
63946;BME280;50122;56.330;43.838;2022-09-09T21:28:33;101714.47;;;6.69;78.76
63946;BME280;50122;56.330;43.838;2022-09-09T21:31:02;101733.75;;;6.66;78.61
63946;BME280;50122;56.330;43.838;2022-09-09T21:33:29;101721.53;;;6.57;78.80
63946;BME280;50122;56.330;43.838;2022-09-09T21:36:04;101736.41;;;6.62;79.43
63946;BME280;50122;56.330;43.838;2022-09-09T21:38:33;101721.56;;;6.54;79.30
63946;BME280;50122;56.330;43.838;2022-09-09T21:41:04;101719.81;;;6.52;79.46
63946;BME280;50122;56.330;43.838;2022-09-09T21:43:31;101718.06;;;6.49;78.97
63946;BME280;50122;56.330;43.838;2022-09-09T21:45:59;101719.81;;;6.52;79.16
63946;BME280;50122;56.330;43.838;2022-09-09T21:48:29;101730.28;;;6.55;79.63
63946;BME280;50122;56.330;43.838;2022-09-09T21:51:02;101724.16;;;6.53;79.29
63946;BME280;50122;56.330;43.838;2022-09-09T21:53:30;101726.78;;;6.53;79.75
63946;BME280;50122;56.330;43.838;2022-09-09T21:56:03;101725.00;;;6.61;79.50
63946;BME280;50122;56.330;43.838;2022-09-09T21:58:33;101725.88;;;6.65;79.80
63946;BME280;50122;56.330;43.838;2022-09-09T22:01:00;101728.50;;;6.63;80.15
63946;BME280;50122;56.330;43.838;2022-09-09T22:03:27;101736.38;;;6.66;79.81
63946;BME280;50122;56.330;43.838;2022-09-09T22:05:54;101729.34;;;6.70;80.32
63946;BME280;50122;56.330;43.838;2022-09-09T22:08:20;101718.84;;;6.67;79.68
63946;BME280;50122;56.330;43.838;2022-09-09T22:10:47;101731.09;;;6.69;79.96
63946;BME280;50122;56.330;43.838;2022-09-09T22:13:15;101734.59;;;6.68;80.04
63946;BME280;50122;56.330;43.838;2022-09-09T22:15:43;101739.00;;;6.65;79.64
63946;BME280;50122;56.330;43.838;2022-09-09T22:18:11;101735.50;;;6.69;80.13
63946;BME280;50122;56.330;43.838;2022-09-09T22:20:43;101734.59;;;6.71;80.18
63946;BME280;50122;56.330;43.838;2022-09-09T22:23:11;101713.66;;;6.57;79.56
63946;BME280;50122;56.330;43.838;2022-09-09T22:25:38;101738.09;;;6.67;80.24
63946;BME280;50122;56.330;43.838;2022-09-09T22:28:07;101727.63;;;6.64;79.80
63946;BME280;50122;56.330;43.838;2022-09-09T22:30:35;101731.09;;;6.71;79.80
63946;BME280;50122;56.330;43.838;2022-09-09T22:33:01;101731.94;;;6.73;79.83
63946;BME280;50122;56.330;43.838;2022-09-09T22:35:28;101718.81;;;6.76;79.72
63946;BME280;50122;56.330;43.838;2022-09-09T22:37:55;101734.56;;;6.81;79.82
63946;BME280;50122;56.330;43.838;2022-09-09T22:40:24;101732.78;;;6.84;79.88
63946;BME280;50122;56.330;43.838;2022-09-09T22:42:51;101737.16;;;6.87;79.43
63946;BME280;50122;56.330;43.838;2022-09-09T22:45:19;101732.75;;;6.87;79.13
63946;BME280;50122;56.330;43.838;2022-09-09T22:47:47;101724.88;;;6.86;79.09
63946;BME280;50122;56.330;43.838;2022-09-09T22:50:13;101726.63;;;6.87;78.91
63946;BME280;50122;56.330;43.838;2022-09-09T22:52:40;101735.38;;;6.89;79.39
63946;BME280;50122;56.330;43.838;2022-09-09T22:55:07;101733.63;;;6.89;78.76
63946;BME280;50122;56.330;43.838;2022-09-09T22:57:35;101729.28;;;6.85;79.35
63946;BME280;50122;56.330;43.838;2022-09-09T23:00:04;101732.75;;;6.87;79.30
63946;BME280;50122;56.330;43.838;2022-09-09T23:02:34;101724.94;;;6.78;79.15
63946;BME280;50122;56.330;43.838;2022-09-09T23:05:07;101730.16;;;6.81;78.97
63946;BME280;50122;56.330;43.838;2022-09-09T23:07:35;101731.94;;;6.81;79.45
63946;BME280;50122;56.330;43.838;2022-09-09T23:10:03;101725.81;;;6.75;79.36
63946;BME280;50122;56.330;43.838;2022-09-09T23:12:30;101741.56;;;6.75;79.03
63946;BME280;50122;56.330;43.838;2022-09-09T23:14:57;101731.97;;;6.71;79.31
63946;BME280;50122;56.330;43.838;2022-09-09T23:17:24;101730.22;;;6.72;79.46
63946;BME280;50122;56.330;43.838;2022-09-09T23:19:51;101725.00;;;6.69;79.43
63946;BME280;50122;56.330;43.838;2022-09-09T23:22:19;101716.22;;;6.65;79.78
63946;BME280;50122;56.330;43.838;2022-09-09T23:24:47;101722.38;;;6.69;79.59
63946;BME280;50122;56.330;43.838;2022-09-09T23:27:16;101742.44;;;6.74;79.71
63946;BME280;50122;56.330;43.838;2022-09-09T23:29:42;101730.19;;;6.78;79.63
63946;BME280;50122;56.330;43.838;2022-09-09T23:32:09;101726.69;;;6.74;79.53
63946;BME280;50122;56.330;43.838;2022-09-09T23:34:39;101732.81;;;6.80;79.37
63946;BME280;50122;56.330;43.838;2022-09-09T23:37:06;101737.19;;;6.81;79.59
63946;BME280;50122;56.330;43.838;2022-09-09T23:39:37;101724.09;;;6.76;79.39
63946;BME280;50122;56.330;43.838;2022-09-09T23:42:07;101735.41;;;6.83;79.54
63946;BME280;50122;56.330;43.838;2022-09-09T23:44:37;101723.16;;;6.78;79.45
63946;BME280;50122;56.330;43.838;2022-09-09T23:47:05;101736.28;;;6.85;79.66
63946;BME280;50122;56.330;43.838;2022-09-09T23:49:34;101729.25;;;6.87;79.77
63946;BME280;50122;56.330;43.838;2022-09-09T23:52:05;101732.78;;;6.83;79.89
63946;BME280;50122;56.330;43.838;2022-09-09T23:54:33;101730.16;;;6.83;79.88
63946;BME280;50122;56.330;43.838;2022-09-09T23:57:01;101733.66;;;6.82;79.58
63946;BME280;50122;56.330;43.838;2022-09-09T23:59:30;101734.53;;;6.84;80.08
